Terminal Aerodrome Forecast
Issued by NWS Grand Forks, ND

Home | Current Version | Previous Version | Graphics & Text | Print | Product List | Glossary On
Versions: 1 2 3 4 5 6 7 8 9 10 11 12 13 14 15 16 17 18 19 20
000
FTUS43 KFGF 232320
TAFFAR
TAF
KFAR 232320Z 2400/2424 25006KT P6SM FEW250
     FM240300 20005KT P6SM FEW250
     FM241000 17006KT P6SM FEW060
     FM241900 16009KT P6SM BKN020
     FM242000 15008KT 1 1/2SM -SN OVC015=

USA.gov is the U.S. government's official web portal to all federal, state and local government web resources and services.